createdAt,value
2019-04-26T00:12:24.900Z,96660.93
2019-04-26T00:27:31.718Z,96656.52
2019-04-26T00:42:39.030Z,96662.22
2019-04-26T00:57:47.510Z,96643.03
2019-04-26T01:12:55.415Z,96616.05
2019-04-26T01:28:03.442Z,96602.90
2019-04-26T01:43:16.723Z,96576.32
2019-04-26T01:58:25.248Z,96573.30
2019-04-26T02:13:33.070Z,96578.95
2019-04-26T02:28:41.150Z,96563.31
2019-04-26T02:43:50.849Z,96557.22
2019-04-26T02:59:05.557Z,96552.00
2019-04-26T03:14:15.213Z,96533.73
2019-04-26T03:29:45.909Z,96510.60
2019-04-26T03:45:16.465Z,96502.75
2019-04-26T04:00:31.490Z,96487.03
2019-04-26T04:15:46.767Z,96479.56
2019-04-26T04:31:29.296Z,96476.34
2019-04-26T04:47:24.189Z,96463.63
2019-04-26T05:02:51.701Z,96455.95
2019-04-26T05:18:22.496Z,96452.41
2019-04-26T05:33:40.186Z,96430.98
2019-04-26T05:49:34.000Z,96430.48
2019-04-26T06:05:14.943Z,96411.41
2019-04-26T06:20:47.431Z,96400.03
2019-04-26T06:35:56.218Z,96379.49
2019-04-26T06:51:23.795Z,96378.38
2019-04-26T07:06:46.066Z,96366.36
2019-04-26T07:22:35.903Z,96358.20
2019-04-26T07:38:18.660Z,96346.69
2019-04-26T07:53:43.103Z,96337.84
2019-04-26T08:09:01.235Z,96323.62
2019-04-26T08:24:16.728Z,96323.62
2019-04-26T08:39:32.543Z,96311.53
2019-04-26T08:54:41.341Z,96303.87
2019-04-26T09:09:57.332Z,96304.01
2019-04-26T09:25:14.929Z,96287.69
2019-04-26T09:40:22.881Z,96277.32
2019-04-26T09:55:35.575Z,96268.95
2019-04-26T10:10:38.668Z,96269.50
2019-04-26T10:25:47.303Z,96255.22
2019-04-26T10:40:55.192Z,96245.36
2019-04-26T10:56:10.826Z,96245.84
2019-04-26T11:11:18.036Z,96233.54
2019-04-26T11:26:26.024Z,96218.55
2019-04-26T11:41:34.011Z,96202.86
2019-04-26T11:56:41.113Z,96207.39
2019-04-26T12:11:50.961Z,96218.17
2019-04-26T12:26:57.707Z,96183.87
2019-04-26T12:42:08.290Z,96180.59
2019-04-26T12:57:16.476Z,96173.45
2019-04-26T13:12:26.002Z,96160.26
2019-04-26T13:27:34.634Z,96143.87
2019-04-26T13:42:47.413Z,96130.80
2019-04-26T13:57:55.872Z,96118.80
2019-04-26T14:13:02.711Z,96132.73
2019-04-26T14:28:12.023Z,96124.84
2019-04-26T14:43:22.449Z,96136.74
2019-04-26T14:58:30.441Z,96156.27
2019-04-26T15:13:40.557Z,96143.56
2019-04-26T15:28:50.364Z,96131.20
2019-04-26T15:44:05.485Z,96123.05
2019-04-26T15:59:12.814Z,96115.08
2019-04-26T16:14:24.951Z,96112.77
2019-04-26T16:29:39.965Z,96118.02
2019-04-26T16:44:46.993Z,96097.08
2019-04-26T16:59:57.564Z,96098.10
2019-04-26T17:15:03.472Z,96099.45
2019-04-26T17:30:13.780Z,96092.66
2019-04-26T17:45:23.859Z,96102.24
2019-04-26T18:00:45.601Z,96118.25
2019-04-26T18:15:46.925Z,96123.45
2019-04-26T18:30:53.072Z,96140.79
2019-04-26T18:46:08.073Z,96153.91
2019-04-26T19:01:17.132Z,96166.03
2019-04-26T19:16:42.261Z,96166.03
2019-04-26T19:31:52.333Z,96189.84
2019-04-26T19:47:07.755Z,96208.31
2019-04-26T20:02:15.039Z,96207.64
2019-04-26T20:17:23.580Z,96202.00
2019-04-26T20:32:35.090Z,96201.36
2019-04-26T20:47:41.898Z,96197.25
2019-04-26T21:02:48.897Z,96206.02
2019-04-26T21:17:56.601Z,96205.65
2019-04-26T21:33:07.010Z,96204.38
2019-04-26T21:48:18.306Z,96216.56
2019-04-26T22:03:24.271Z,96215.67
2019-04-26T22:18:35.582Z,96222.17
2019-04-26T22:33:42.882Z,96221.51
2019-04-26T22:49:01.012Z,96218.14
2019-04-26T23:04:03.432Z,96223.05
2019-04-26T23:19:19.278Z,96210.50
2019-04-26T23:34:25.230Z,96213.93
2019-04-26T23:49:33.429Z,96201.50
